Halibut Cove, Alaska
Current Conditions -  °F | °C
As of 1:53 PM on Thursday 27 Nov 2014 (Local Time) from PAHO Reporting Station
Scattered Clouds Scattered Clouds  
Wind Chill: 25°   Ceiling: Unl
Heat Index: 33°   Visibility: 10mi
Dew Point: 24°   Wind: 9mph
Humidity: 70%   Direction: 60°ENE
Pressure: 30.17"   Gusts: NA
Location:  59.7153°N, 150.773°W
Report Text: PAHO 272253Z 06008KT 10SM SCT250 01/M04 A3017 RMK AO2 SLP219 T00061044
Loading
Personal Weather Stations






























Interactive Weather Map New forecast layout! Learn more

10-Day Weather Forecast

Advertisements
Track Severe Weather on mobile